createdAt,value
2019-01-12T00:02:05.579Z,97683.05
2019-01-12T00:04:34.986Z,97694.03
2019-01-12T00:07:04.458Z,97693.20
2019-01-12T00:09:33.870Z,97695.64
2019-01-12T00:12:03.231Z,97697.53
2019-01-12T00:14:32.575Z,97687.84
2019-01-12T00:17:01.932Z,97694.13
2019-01-12T00:19:31.278Z,97681.62
2019-01-12T00:22:00.643Z,97678.26
2019-01-12T00:24:31.673Z,97687.70
2019-01-12T00:27:01.285Z,97696.03
2019-01-12T00:29:30.647Z,97694.31
2019-01-12T00:32:00.007Z,97708.50
2019-01-12T00:34:29.421Z,97706.72
2019-01-12T00:36:58.773Z,97713.00
2019-01-12T00:39:28.123Z,97714.51
2019-01-12T00:41:57.566Z,97717.16
2019-01-12T00:44:26.917Z,97711.62
2019-01-12T00:46:56.264Z,97708.25
2019-01-12T00:49:25.642Z,97698.50
2019-01-12T00:51:55.002Z,97696.63
2019-01-12T00:54:24.360Z,97696.30
2019-01-12T00:56:53.730Z,97710.84
2019-01-12T00:59:23.177Z,97718.14
2019-01-12T01:01:52.521Z,97713.02
2019-01-12T01:04:21.951Z,97718.12
2019-01-12T01:06:51.416Z,97721.13
2019-01-12T01:09:20.784Z,97714.42
2019-01-12T01:11:50.126Z,97729.02
2019-01-12T01:14:19.544Z,97724.20
2019-01-12T01:16:49.139Z,97730.17
2019-01-12T01:19:18.501Z,97739.75
2019-01-12T01:21:47.941Z,97733.41
2019-01-12T01:24:17.373Z,97733.52
2019-01-12T01:26:46.721Z,97732.48
2019-01-12T01:29:16.091Z,97740.27
2019-01-12T01:31:45.474Z,97740.27
2019-01-12T01:34:14.842Z,97737.23
2019-01-12T01:36:44.353Z,97745.98
2019-01-12T01:39:13.713Z,97742.30
2019-01-12T01:41:43.191Z,97740.58
2019-01-12T01:44:12.663Z,97732.25
2019-01-12T01:46:42.002Z,97739.31
2019-01-12T01:49:11.490Z,97732.46
2019-01-12T01:51:40.900Z,97737.84
2019-01-12T01:54:10.274Z,97731.77
2019-01-12T01:56:39.639Z,97738.31
2019-01-12T01:59:09.014Z,97737.23
2019-01-12T02:01:38.380Z,97739.31
2019-01-12T02:04:07.814Z,97740.55
2019-01-12T02:06:37.150Z,97745.72
2019-01-12T02:09:08.203Z,97746.74
2019-01-12T02:11:37.629Z,97748.08
2019-01-12T02:14:07.036Z,97738.27
2019-01-12T02:16:36.385Z,97749.81
2019-01-12T02:19:05.955Z,97746.23
2019-01-12T02:21:35.335Z,97742.75
2019-01-12T02:24:04.763Z,97744.03
2019-01-12T02:26:34.163Z,97747.09
2019-01-12T02:29:03.683Z,97737.80
2019-01-12T02:31:33.128Z,97733.80
2019-01-12T02:34:02.500Z,97738.32
2019-01-12T02:36:31.892Z,97734.67
2019-01-12T02:39:01.345Z,97735.03
2019-01-12T02:41:30.736Z,97732.95
2019-01-12T02:44:00.189Z,97742.89
2019-01-12T02:46:29.565Z,97740.34
2019-01-12T02:48:58.967Z,97738.73
2019-01-12T02:51:28.350Z,97740.27
2019-01-12T02:53:57.813Z,97730.41
2019-01-12T02:56:27.191Z,97731.91
2019-01-12T02:58:56.664Z,97738.20
2019-01-12T03:01:26.027Z,97729.94
2019-01-12T03:03:55.741Z,97736.77
2019-01-12T03:06:25.119Z,97731.98
2019-01-12T03:08:54.506Z,97732.30
2019-01-12T03:11:23.975Z,97732.86
2019-01-12T03:13:53.417Z,97721.98
2019-01-12T03:16:22.809Z,97723.92
2019-01-12T03:18:52.230Z,97727.36
2019-01-12T03:21:21.619Z,97726.45
2019-01-12T03:23:51.050Z,97729.77
2019-01-12T03:26:20.425Z,97719.88
2019-01-12T03:28:49.811Z,97722.29
2019-01-12T03:31:19.185Z,97726.91
2019-01-12T03:33:48.563Z,97728.38
2019-01-12T03:36:18.306Z,97736.00
2019-01-12T03:38:47.698Z,97722.34
2019-01-12T03:41:17.183Z,97729.59
2019-01-12T03:43:46.616Z,97725.97
2019-01-12T03:46:16.132Z,97740.34
2019-01-12T03:48:45.494Z,97742.25
2019-01-12T03:51:14.979Z,97736.93
2019-01-12T03:53:44.462Z,97728.81
2019-01-12T03:56:13.922Z,97722.08
2019-01-12T03:58:43.376Z,97723.17
2019-01-12T04:01:12.857Z,97713.91
2019-01-12T04:03:42.331Z,97725.59
2019-01-12T04:06:11.975Z,97724.01
2019-01-12T04:08:41.386Z,97720.06
2019-01-12T04:11:10.830Z,97708.72
2019-01-12T04:13:40.306Z,97708.39
2019-01-12T04:16:09.745Z,97710.58
2019-01-12T04:18:39.227Z,97713.31
2019-01-12T04:21:08.705Z,97709.19
2019-01-12T04:23:38.059Z,97695.20
2019-01-12T04:26:07.546Z,97697.99
2019-01-12T04:28:36.963Z,97698.58
2019-01-12T04:31:06.380Z,97700.07
2019-01-12T04:33:35.777Z,97697.48
2019-01-12T04:36:05.302Z,97692.85
2019-01-12T04:38:34.762Z,97694.08
2019-01-12T04:41:04.208Z,97697.59
2019-01-12T04:43:33.661Z,97695.59
2019-01-12T04:46:03.102Z,97698.25
2019-01-12T04:48:32.565Z,97695.19
2019-01-12T04:51:02.061Z,97693.54
2019-01-12T04:53:31.477Z,97692.70
2019-01-12T04:56:00.886Z,97698.58
2019-01-12T04:58:30.307Z,97700.85
2019-01-12T05:00:59.898Z,97688.70
2019-01-12T05:03:29.628Z,97693.05
2019-01-12T05:05:59.409Z,97697.86
2019-01-12T05:08:29.111Z,97701.96
2019-01-12T05:10:58.907Z,97699.61
2019-01-12T05:13:28.688Z,97697.73
2019-01-12T05:15:58.144Z,97699.61
2019-01-12T05:18:27.514Z,97698.17
2019-01-12T05:20:56.898Z,97702.88
2019-01-12T05:23:26.357Z,97703.03
2019-01-12T05:25:55.732Z,97698.06
2019-01-12T05:28:25.269Z,97707.98
2019-01-12T05:30:54.653Z,97703.45
2019-01-12T05:33:24.018Z,97707.92
2019-01-12T05:35:53.501Z,97707.74
2019-01-12T05:38:22.882Z,97703.83
2019-01-12T05:40:52.235Z,97698.92
2019-01-12T05:43:21.626Z,97702.58
2019-01-12T05:45:50.987Z,97713.44
2019-01-12T05:48:20.422Z,97709.56
2019-01-12T05:50:49.884Z,97712.34
2019-01-12T05:53:19.322Z,97710.86
2019-01-12T05:55:56.616Z,97715.03
2019-01-12T05:58:19.854Z,97714.82
2019-01-12T06:00:49.278Z,97707.75
2019-01-12T06:03:18.721Z,97713.28
2019-01-12T06:05:48.079Z,97711.31
2019-01-12T06:08:17.525Z,97717.48
2019-01-12T06:10:46.878Z,97726.34
2019-01-12T06:13:16.227Z,97729.34
2019-01-12T06:15:45.651Z,97728.95
2019-01-12T06:18:15.031Z,97726.05
2019-01-12T06:20:44.394Z,97726.12
2019-01-12T06:23:13.878Z,97733.98
2019-01-12T06:25:43.289Z,97726.39
2019-01-12T06:28:12.766Z,97727.36
2019-01-12T06:30:42.217Z,97725.94
2019-01-12T06:33:11.796Z,97722.69
2019-01-12T06:35:41.192Z,97712.81
2019-01-12T06:38:10.595Z,97728.80
2019-01-12T06:40:40.108Z,97719.75
2019-01-12T06:43:09.520Z,97726.78
2019-01-12T06:45:39.041Z,97717.75
2019-01-12T06:48:08.409Z,97718.81
2019-01-12T06:50:37.819Z,97719.41
2019-01-12T06:53:07.342Z,97721.52
2019-01-12T06:55:36.824Z,97716.44
2019-01-12T06:58:06.296Z,97721.15
2019-01-12T07:00:35.802Z,97719.95
2019-01-12T07:03:05.236Z,97716.77
2019-01-12T07:05:34.847Z,97715.27
2019-01-12T07:08:04.284Z,97716.89
2019-01-12T07:10:33.741Z,97708.25
2019-01-12T07:13:03.229Z,97712.81
2019-01-12T07:15:32.688Z,97712.68
2019-01-12T07:18:08.664Z,97711.88
2019-01-12T07:20:33.342Z,97714.42
2019-01-12T07:23:02.736Z,97708.84
2019-01-12T07:25:32.216Z,97719.66
2019-01-12T07:28:01.631Z,97726.73
2019-01-12T07:30:31.184Z,97720.22
2019-01-12T07:33:00.543Z,97726.56
2019-01-12T07:35:30.025Z,97730.61
2019-01-12T07:37:59.564Z,97733.28
2019-01-12T07:40:29.138Z,97736.66
2019-01-12T07:42:58.565Z,97741.80
2019-01-12T07:45:28.041Z,97747.25
2019-01-12T07:47:57.424Z,97750.56
2019-01-12T07:50:26.816Z,97754.20
2019-01-12T07:52:56.273Z,97754.27
2019-01-12T07:55:25.655Z,97756.73
2019-01-12T07:57:55.139Z,97753.88
2019-01-12T08:00:24.669Z,97758.40
2019-01-12T08:02:54.033Z,97764.25
2019-01-12T08:05:23.687Z,97763.34
2019-01-12T08:07:53.055Z,97760.51
2019-01-12T08:10:27.063Z,97762.33
2019-01-12T08:12:56.574Z,97763.81
2019-01-12T08:15:26.121Z,97763.56
2019-01-12T08:17:55.589Z,97762.72
2019-01-12T08:20:25.063Z,97765.13
2019-01-12T08:22:54.579Z,97764.09
2019-01-12T08:25:24.250Z,97763.95
2019-01-12T08:27:53.872Z,97759.53
2019-01-12T08:30:23.429Z,97768.49
2019-01-12T08:32:52.880Z,97754.33
2019-01-12T08:35:22.433Z,97760.86
2019-01-12T08:37:51.896Z,97749.72
2019-01-12T08:40:21.268Z,97756.46
2019-01-12T08:42:50.715Z,97740.67
2019-01-12T08:45:20.164Z,97742.44
2019-01-12T08:47:49.631Z,97746.41
2019-01-12T08:50:20.102Z,97746.27
2019-01-12T08:52:49.650Z,97755.53
2019-01-12T08:55:19.128Z,97750.11
2019-01-12T08:57:48.694Z,97749.17
2019-01-12T09:00:22.226Z,97748.59
2019-01-12T09:02:51.657Z,97744.20
2019-01-12T09:05:21.146Z,97749.57
2019-01-12T09:07:50.533Z,97741.08
2019-01-12T09:10:23.356Z,97739.70
2019-01-12T09:12:52.815Z,97743.16
2019-01-12T09:15:24.252Z,97742.44
2019-01-12T09:17:53.691Z,97743.41
2019-01-12T09:20:23.132Z,97744.70
2019-01-12T09:22:52.608Z,97738.37
2019-01-12T09:25:22.031Z,97746.33
2019-01-12T09:27:51.434Z,97748.22
2019-01-12T09:30:26.737Z,97745.63
2019-01-12T09:32:56.251Z,97747.60
2019-01-12T09:35:25.577Z,97751.02
2019-01-12T09:37:55.014Z,97744.83
2019-01-12T09:40:24.368Z,97748.47
2019-01-12T09:42:53.770Z,97736.52
2019-01-12T09:45:23.193Z,97740.16
2019-01-12T09:47:52.668Z,97739.26
2019-01-12T09:50:22.263Z,97734.84
2019-01-12T09:52:51.809Z,97733.97
2019-01-12T09:55:21.202Z,97731.46
2019-01-12T09:57:50.594Z,97734.09
2019-01-12T10:00:22.096Z,97731.48
2019-01-12T10:02:51.429Z,97721.72
2019-01-12T10:05:20.832Z,97728.90
2019-01-12T10:07:50.186Z,97729.95
2019-01-12T10:10:20.100Z,97729.31
2019-01-12T10:12:49.613Z,97724.57
2019-01-12T10:15:18.932Z,97715.30
2019-01-12T10:17:48.326Z,97708.85
2019-01-12T10:20:18.755Z,97705.81
2019-01-12T10:22:48.157Z,97703.88
2019-01-12T10:25:18.074Z,97700.84
2019-01-12T10:27:47.545Z,97694.13
2019-01-12T10:30:22.095Z,97701.55
2019-01-12T10:32:51.486Z,97698.17
2019-01-12T10:35:20.879Z,97703.70
2019-01-12T10:37:50.358Z,97693.92
2019-01-12T10:40:19.988Z,97690.69
2019-01-12T10:42:49.738Z,97688.42
2019-01-12T10:45:20.581Z,97688.45
2019-01-12T10:47:50.060Z,97687.41
2019-01-12T10:50:21.999Z,97684.35
2019-01-12T10:52:51.496Z,97687.98
2019-01-12T10:55:20.904Z,97679.41
2019-01-12T10:57:50.332Z,97677.64
2019-01-12T11:00:22.146Z,97666.27
2019-01-12T11:02:51.465Z,97669.33
2019-01-12T11:05:20.957Z,97663.41
2019-01-12T11:07:50.470Z,97662.27
2019-01-12T11:10:19.883Z,97650.67
2019-01-12T11:12:49.348Z,97652.78
2019-01-12T11:15:20.059Z,97647.47
2019-01-12T11:17:49.451Z,97639.70
2019-01-12T11:20:18.932Z,97639.14
2019-01-12T11:22:48.415Z,97632.56
2019-01-12T11:25:17.874Z,97632.98
2019-01-12T11:27:47.278Z,97617.28
2019-01-12T11:30:18.003Z,97615.69
2019-01-12T11:32:47.475Z,97604.79
2019-01-12T11:35:16.932Z,97591.22
2019-01-12T11:37:46.426Z,97595.99
2019-01-12T11:40:18.016Z,97588.45
2019-01-12T11:42:48.211Z,97587.80
2019-01-12T11:45:17.721Z,97583.84
2019-01-12T11:47:47.056Z,97583.09
2019-01-12T11:50:16.796Z,97584.10
2019-01-12T11:52:46.539Z,97576.41
2019-01-12T11:55:16.932Z,97571.20
2019-01-12T11:57:46.316Z,97571.31
2019-01-12T12:00:23.572Z,97571.24
2019-01-12T12:02:53.235Z,97565.48
2019-01-12T12:05:22.734Z,97571.27
2019-01-12T12:07:52.236Z,97567.73
2019-01-12T12:10:21.989Z,97569.87
2019-01-12T12:12:51.469Z,97565.20
2019-01-12T12:15:21.853Z,97564.39
2019-01-12T12:17:51.282Z,97567.39
2019-01-12T12:20:25.389Z,97567.63
2019-01-12T12:22:54.860Z,97561.92
2019-01-12T12:25:24.270Z,97554.13
2019-01-12T12:27:53.669Z,97548.88
2019-01-12T12:30:28.053Z,97545.63
2019-01-12T12:32:57.468Z,97540.40
2019-01-12T12:35:26.943Z,97538.77
2019-01-12T12:37:56.437Z,97524.67
2019-01-12T12:40:26.401Z,97529.42
2019-01-12T12:42:55.795Z,97512.19
2019-01-12T12:45:27.955Z,97507.99
2019-01-12T12:47:57.279Z,97501.20
2019-01-12T12:50:26.668Z,97499.11
2019-01-12T12:52:56.089Z,97491.99
2019-01-12T12:55:25.763Z,97474.38
2019-01-12T12:57:55.109Z,97469.41
2019-01-12T13:00:26.532Z,97474.92
2019-01-12T13:02:55.853Z,97475.48
2019-01-12T13:05:25.322Z,97464.19
2019-01-12T13:07:54.734Z,97468.10
2019-01-12T13:10:28.940Z,97467.88
2019-01-12T13:12:58.268Z,97470.22
2019-01-12T13:15:27.638Z,97470.63
2019-01-12T13:17:56.992Z,97471.77
2019-01-12T13:20:26.468Z,97477.43
2019-01-12T13:22:55.826Z,97481.73
2019-01-12T13:25:25.141Z,97474.80
2019-01-12T13:27:54.650Z,97475.14
2019-01-12T13:30:25.718Z,97467.47
2019-01-12T13:32:55.059Z,97470.52
2019-01-12T13:35:24.504Z,97456.23
2019-01-12T13:37:53.903Z,97460.22
2019-01-12T13:40:27.569Z,97464.77
2019-01-12T13:42:57.000Z,97463.20
2019-01-12T13:45:26.515Z,97462.02
2019-01-12T13:47:55.953Z,97459.44
2019-01-12T13:50:26.748Z,97463.70
2019-01-12T13:52:56.168Z,97455.83
2019-01-12T13:55:25.509Z,97458.22
2019-01-12T13:57:54.880Z,97458.92
2019-01-12T14:00:43.408Z,97447.52
2019-01-12T14:03:12.753Z,97452.64
2019-01-12T14:05:42.082Z,97452.72
2019-01-12T14:08:11.470Z,97454.37
2019-01-12T14:10:40.812Z,97459.12
2019-01-12T14:13:10.326Z,97447.94
2019-01-12T14:15:39.731Z,97447.13
2019-01-12T14:18:09.926Z,97445.81
2019-01-12T14:20:43.020Z,97440.79
2019-01-12T14:23:12.422Z,97432.31
2019-01-12T14:25:41.824Z,97424.64
2019-01-12T14:28:11.184Z,97415.68
2019-01-12T14:30:40.625Z,97419.44
2019-01-12T14:33:10.056Z,97417.83
2019-01-12T14:35:39.514Z,97406.56
2019-01-12T14:38:08.939Z,97401.52
2019-01-12T14:40:39.927Z,97400.45
2019-01-12T14:43:09.319Z,97397.39
2019-01-12T14:45:38.634Z,97388.65
2019-01-12T14:48:08.319Z,97385.47
2019-01-12T14:50:37.622Z,97380.19
2019-01-12T14:53:07.067Z,97369.08
2019-01-12T14:55:36.440Z,97365.40
2019-01-12T14:58:06.653Z,97358.96
2019-01-12T15:00:36.110Z,97357.84
2019-01-12T15:03:05.508Z,97343.42
2019-01-12T15:05:36.110Z,97353.87
2019-01-12T15:08:05.722Z,97347.44
2019-01-12T15:10:35.399Z,97336.17
2019-01-12T15:13:04.888Z,97339.54
2019-01-12T15:15:34.210Z,97318.72
2019-01-12T15:18:03.701Z,97325.67
2019-01-12T15:20:33.166Z,97315.45
2019-01-12T15:23:02.579Z,97315.86
2019-01-12T15:25:31.905Z,97311.88
2019-01-12T15:28:01.284Z,97316.85
2019-01-12T15:30:31.758Z,97308.39
2019-01-12T15:33:03.318Z,97307.71
2019-01-12T15:35:33.839Z,97304.97
2019-01-12T15:38:03.308Z,97314.02
2019-01-12T15:40:32.696Z,97295.73
2019-01-12T15:43:02.146Z,97295.19
2019-01-12T15:45:31.556Z,97295.19
2019-01-12T15:48:00.985Z,97293.60
2019-01-12T15:50:30.320Z,97295.75
2019-01-12T15:53:01.379Z,97302.65
2019-01-12T15:55:30.893Z,97286.27
2019-01-12T15:58:00.222Z,97286.89
2019-01-12T16:00:30.285Z,97280.01
2019-01-12T16:02:59.768Z,97286.34
2019-01-12T16:05:30.155Z,97276.95
2019-01-12T16:07:59.590Z,97272.27
2019-01-12T16:10:29.066Z,97272.59
2019-01-12T16:12:58.377Z,97257.25
2019-01-12T16:15:29.890Z,97255.88
2019-01-12T16:17:59.371Z,97249.60
2019-01-12T16:20:39.272Z,97244.34
2019-01-12T16:23:09.562Z,97249.45
2019-01-12T16:25:39.092Z,97232.08
2019-01-12T16:28:08.370Z,97238.75
2019-01-12T16:30:37.722Z,97244.75
2019-01-12T16:33:07.127Z,97242.15
2019-01-12T16:35:36.607Z,97240.58
2019-01-12T16:38:06.038Z,97226.34
2019-01-12T16:40:35.439Z,97231.98
2019-01-12T16:43:04.948Z,97239.71
2019-01-12T16:45:34.275Z,97229.00
2019-01-12T16:48:03.616Z,97223.61
2019-01-12T16:50:32.925Z,97223.04
2019-01-12T16:53:02.322Z,97221.13
2019-01-12T16:55:31.672Z,97229.41
2019-01-12T16:58:01.014Z,97221.33
2019-01-12T17:00:31.023Z,97210.29
2019-01-12T17:03:00.832Z,97219.78
2019-01-12T17:05:30.156Z,97229.70
2019-01-12T17:07:59.611Z,97225.27
2019-01-12T17:10:29.014Z,97227.35
2019-01-12T17:12:58.427Z,97233.87
2019-01-12T17:15:34.428Z,97225.64
2019-01-12T17:17:58.967Z,97227.45
2019-01-12T17:20:29.053Z,97229.30
2019-01-12T17:23:02.964Z,97232.86
2019-01-12T17:25:32.464Z,97228.30
2019-01-12T17:28:01.861Z,97231.50
2019-01-12T17:30:31.252Z,97226.87
2019-01-12T17:33:00.645Z,97220.30
2019-01-12T17:35:29.971Z,97210.30
2019-01-12T17:37:59.515Z,97199.36
2019-01-12T17:40:28.923Z,97186.40
2019-01-12T17:42:58.248Z,97185.56
2019-01-12T17:45:27.817Z,97187.87
2019-01-12T17:47:57.173Z,97189.47
2019-01-12T17:50:27.867Z,97185.84
2019-01-12T17:52:57.338Z,97181.31
2019-01-12T17:55:27.755Z,97176.33
2019-01-12T17:57:57.167Z,97171.41
2019-01-12T18:00:39.065Z,97170.12
2019-01-12T18:03:08.420Z,97163.19
2019-01-12T18:05:37.795Z,97159.74
2019-01-12T18:08:07.230Z,97151.65
2019-01-12T18:10:36.634Z,97140.36
2019-01-12T18:13:06.058Z,97145.56
2019-01-12T18:15:35.377Z,97141.52
2019-01-12T18:18:04.954Z,97140.92
2019-01-12T18:20:34.274Z,97142.49
2019-01-12T18:23:03.702Z,97135.33
2019-01-12T18:25:33.014Z,97132.40
2019-01-12T18:28:02.424Z,97119.95
2019-01-12T18:30:31.834Z,97115.88
2019-01-12T18:33:01.159Z,97112.66
2019-01-12T18:35:30.485Z,97111.80
2019-01-12T18:37:59.823Z,97109.38
2019-01-12T18:40:29.149Z,97100.57
2019-01-12T18:42:58.503Z,97099.45
2019-01-12T18:45:27.830Z,97095.03
2019-01-12T18:47:57.204Z,97100.20
2019-01-12T18:50:27.240Z,97098.37
2019-01-12T18:52:56.649Z,97097.30
2019-01-12T18:55:26.046Z,97087.09
2019-01-12T18:57:55.363Z,97083.36
2019-01-12T19:00:26.223Z,97076.56
2019-01-12T19:02:55.702Z,97074.00
2019-01-12T19:05:25.283Z,97070.98
2019-01-12T19:07:54.920Z,97064.72
2019-01-12T19:10:24.278Z,97051.13
2019-01-12T19:12:53.675Z,97051.92
2019-01-12T19:15:25.276Z,97051.33
2019-01-12T19:17:54.729Z,97055.27
2019-01-12T19:20:24.176Z,97053.55
2019-01-12T19:22:53.755Z,97052.12
2019-01-12T19:25:23.138Z,97032.44
2019-01-12T19:27:52.439Z,97028.09
2019-01-12T19:30:22.948Z,97021.19
2019-01-12T19:32:52.338Z,97024.41
2019-01-12T19:35:21.755Z,97018.13
2019-01-12T19:37:51.080Z,97024.00
2019-01-12T19:40:22.545Z,97026.16
2019-01-12T19:42:51.944Z,97018.16
2019-01-12T19:45:21.345Z,97023.03
2019-01-12T19:47:52.524Z,97025.80
2019-01-12T19:50:26.045Z,97003.08
2019-01-12T19:52:55.959Z,97020.28
2019-01-12T19:55:25.372Z,97010.03
2019-01-12T19:57:54.862Z,97011.50
2019-01-12T20:00:29.789Z,97010.34
2019-01-12T20:02:59.183Z,97007.09
2019-01-12T20:05:28.582Z,97005.09
2019-01-12T20:07:57.985Z,96994.77
2019-01-12T20:10:27.499Z,96991.96
2019-01-12T20:12:57.147Z,96991.63
2019-01-12T20:15:26.583Z,96989.61
2019-01-12T20:17:56.022Z,96974.89
2019-01-12T20:20:25.432Z,96977.92
2019-01-12T20:22:54.827Z,96976.30
2019-01-12T20:25:26.706Z,96973.05
2019-01-12T20:27:56.164Z,96957.85
2019-01-12T20:30:33.054Z,96967.86
2019-01-12T20:33:32.143Z,96961.63
2019-01-12T20:36:34.509Z,96953.20
2019-01-12T20:39:26.032Z,96952.93
2019-01-12T20:42:29.777Z,96957.37
2019-01-12T20:45:39.727Z,96943.59
2019-01-12T20:48:20.811Z,96945.90
2019-01-12T20:51:17.181Z,96940.40
2019-01-12T20:54:13.425Z,96938.48
2019-01-12T20:57:09.555Z,96942.67
2019-01-12T20:59:49.343Z,96936.80
2019-01-12T21:02:39.707Z,96938.98
2019-01-12T21:05:49.733Z,96934.27
2019-01-12T21:08:40.397Z,96932.11
2019-01-12T21:11:51.297Z,96932.40
2019-01-12T21:14:34.014Z,96929.09
2019-01-12T21:17:22.584Z,96924.54
2019-01-12T21:19:51.888Z,96928.39
2019-01-12T21:22:21.292Z,96924.57
2019-01-12T21:24:50.592Z,96922.46
2019-01-12T21:27:19.996Z,96918.28
2019-01-12T21:29:49.394Z,96914.84
2019-01-12T21:32:18.793Z,96911.03
2019-01-12T21:34:48.127Z,96906.98
2019-01-12T21:37:17.526Z,96903.22
2019-01-12T21:39:46.842Z,96902.72
2019-01-12T21:42:16.232Z,96896.20
2019-01-12T21:44:45.538Z,96886.91
2019-01-12T21:47:14.870Z,96883.41
2019-01-12T21:49:44.359Z,96886.76
2019-01-12T21:52:13.671Z,96874.25
2019-01-12T21:54:42.971Z,96871.64
2019-01-12T21:57:12.285Z,96861.40
2019-01-12T21:59:42.715Z,96864.57
2019-01-12T22:02:12.228Z,96870.23
2019-01-12T22:04:41.526Z,96857.30
2019-01-12T22:07:10.867Z,96861.17
2019-01-12T22:09:40.149Z,96859.70
2019-01-12T22:12:09.501Z,96861.21
2019-01-12T22:14:38.820Z,96853.20
2019-01-12T22:17:08.133Z,96852.27
2019-01-12T22:19:37.459Z,96854.80
2019-01-12T22:22:07.104Z,96856.14
2019-01-12T22:24:36.419Z,96864.56
2019-01-12T22:27:05.803Z,96859.30
2019-01-12T22:29:35.117Z,96856.88
2019-01-12T22:32:04.494Z,96847.69
2019-01-12T22:34:33.822Z,96843.56
2019-01-12T22:37:03.135Z,96851.25
2019-01-12T22:39:32.529Z,96852.59
2019-01-12T22:42:01.855Z,96855.68
2019-01-12T22:44:31.166Z,96849.33
2019-01-12T22:47:00.481Z,96840.83
2019-01-12T22:49:29.829Z,96846.48
2019-01-12T22:51:59.127Z,96843.78
2019-01-12T22:54:28.549Z,96835.10
2019-01-12T22:56:57.860Z,96839.99
2019-01-12T22:59:27.273Z,96832.07
2019-01-12T23:02:01.770Z,96842.95
2019-01-12T23:04:31.929Z,96836.26
2019-01-12T23:07:01.439Z,96832.98
2019-01-12T23:09:30.765Z,96824.74
2019-01-12T23:12:00.072Z,96828.34
2019-01-12T23:14:29.390Z,96822.71
2019-01-12T23:16:58.765Z,96812.18
2019-01-12T23:19:28.426Z,96820.08
2019-01-12T23:21:57.818Z,96822.86
2019-01-12T23:24:27.144Z,96813.44
2019-01-12T23:26:56.450Z,96814.12
2019-01-12T23:29:25.774Z,96816.16
2019-01-12T23:31:55.080Z,96804.24
2019-01-12T23:34:24.458Z,96804.55
2019-01-12T23:36:53.851Z,96796.31
2019-01-12T23:39:23.219Z,96801.00
2019-01-12T23:41:52.686Z,96794.17
2019-01-12T23:44:22.065Z,96794.41
2019-01-12T23:46:51.380Z,96793.59
2019-01-12T23:49:20.694Z,96786.68
2019-01-12T23:51:50.019Z,96786.19
2019-01-12T23:54:19.349Z,96792.34
2019-01-12T23:56:48.676Z,96785.83
2019-01-12T23:59:17.980Z,96774.78
